sensor_id;sensor_type;location;lat;lon;timestamp;P1;durP1;ratioP1;P2;durP2;ratioP2
17524;SDS011;40431;52.198;9.902;2023-02-28T00:01:07;6.43;;;5.93;;
17524;SDS011;40431;52.198;9.902;2023-02-28T00:03:33;6.60;;;6.07;;
17524;SDS011;40431;52.198;9.902;2023-02-28T00:06:00;6.23;;;5.63;;
17524;SDS011;40431;52.198;9.902;2023-02-28T00:08:28;5.27;;;4.87;;
17524;SDS011;40431;52.198;9.902;2023-02-28T00:10:54;5.07;;;4.77;;
17524;SDS011;40431;52.198;9.902;2023-02-28T00:13:21;4.80;;;4.40;;
17524;SDS011;40431;52.198;9.902;2023-02-28T00:15:47;5.17;;;4.77;;
17524;SDS011;40431;52.198;9.902;2023-02-28T00:18:24;5.13;;;4.83;;
17524;SDS011;40431;52.198;9.902;2023-02-28T00:20:50;4.70;;;4.40;;
17524;SDS011;40431;52.198;9.902;2023-02-28T00:23:16;5.00;;;4.63;;
17524;SDS011;40431;52.198;9.902;2023-02-28T00:25:44;5.27;;;4.77;;
17524;SDS011;40431;52.198;9.902;2023-02-28T00:28:10;5.40;;;5.00;;
17524;SDS011;40431;52.198;9.902;2023-02-28T00:30:37;6.13;;;5.63;;
17524;SDS011;40431;52.198;9.902;2023-02-28T00:33:03;6.73;;;6.23;;
17524;SDS011;40431;52.198;9.902;2023-02-28T00:35:29;6.80;;;6.20;;
17524;SDS011;40431;52.198;9.902;2023-02-28T00:37:56;6.57;;;5.97;;
17524;SDS011;40431;52.198;9.902;2023-02-28T00:40:22;6.53;;;5.93;;
17524;SDS011;40431;52.198;9.902;2023-02-28T00:42:50;6.77;;;6.27;;
17524;SDS011;40431;52.198;9.902;2023-02-28T00:45:16;5.47;;;5.07;;
17524;SDS011;40431;52.198;9.902;2023-02-28T00:47:42;6.23;;;5.73;;
17524;SDS011;40431;52.198;9.902;2023-02-28T00:50:09;6.40;;;6.00;;
17524;SDS011;40431;52.198;9.902;2023-02-28T00:52:36;7.10;;;6.47;;
17524;SDS011;40431;52.198;9.902;2023-02-28T00:55:03;6.33;;;5.83;;
17524;SDS011;40431;52.198;9.902;2023-02-28T00:57:29;7.87;;;5.97;;
17524;SDS011;40431;52.198;9.902;2023-02-28T00:59:57;6.83;;;6.27;;
17524;SDS011;40431;52.198;9.902;2023-02-28T01:02:24;5.83;;;5.43;;
17524;SDS011;40431;52.198;9.902;2023-02-28T01:04:50;6.13;;;5.53;;
17524;SDS011;40431;52.198;9.902;2023-02-28T01:07:16;5.57;;;5.17;;
17524;SDS011;40431;52.198;9.902;2023-02-28T01:09:43;5.13;;;4.83;;
17524;SDS011;40431;52.198;9.902;2023-02-28T01:12:09;7.73;;;6.07;;
17524;SDS011;40431;52.198;9.902;2023-02-28T01:14:36;6.73;;;6.23;;
17524;SDS011;40431;52.198;9.902;2023-02-28T01:17:04;5.53;;;5.13;;
17524;SDS011;40431;52.198;9.902;2023-02-28T01:19:31;5.50;;;5.10;;
17524;SDS011;40431;52.198;9.902;2023-02-28T01:22:00;5.50;;;5.10;;
17524;SDS011;40431;52.198;9.902;2023-02-28T01:24:26;5.87;;;5.27;;
17524;SDS011;40431;52.198;9.902;2023-02-28T01:26:53;4.83;;;4.43;;
17524;SDS011;40431;52.198;9.902;2023-02-28T01:29:19;5.73;;;5.20;;
17524;SDS011;40431;52.198;9.902;2023-02-28T01:31:45;5.00;;;4.60;;
17524;SDS011;40431;52.198;9.902;2023-02-28T01:34:13;4.77;;;4.37;;
17524;SDS011;40431;52.198;9.902;2023-02-28T01:36:39;5.13;;;4.07;;
17524;SDS011;40431;52.198;9.902;2023-02-28T01:39:06;4.67;;;4.37;;
17524;SDS011;40431;52.198;9.902;2023-02-28T01:41:33;5.27;;;4.83;;
17524;SDS011;40431;52.198;9.902;2023-02-28T01:44:02;5.40;;;5.00;;
17524;SDS011;40431;52.198;9.902;2023-02-28T01:46:31;5.70;;;5.20;;
17524;SDS011;40431;52.198;9.902;2023-02-28T01:49:00;6.33;;;5.23;;
17524;SDS011;40431;52.198;9.902;2023-02-28T01:51:33;6.20;;;5.70;;
17524;SDS011;40431;52.198;9.902;2023-02-28T01:54:11;5.40;;;4.90;;
17524;SDS011;40431;52.198;9.902;2023-02-28T01:56:41;5.30;;;4.90;;
17524;SDS011;40431;52.198;9.902;2023-02-28T01:59:12;5.37;;;4.87;;
17524;SDS011;40431;52.198;9.902;2023-02-28T02:01:44;5.60;;;5.20;;
17524;SDS011;40431;52.198;9.902;2023-02-28T02:04:10;6.07;;;5.57;;
17524;SDS011;40431;52.198;9.902;2023-02-28T02:06:39;5.37;;;4.97;;
17524;SDS011;40431;52.198;9.902;2023-02-28T02:09:09;6.10;;;5.60;;
17524;SDS011;40431;52.198;9.902;2023-02-28T02:11:35;5.63;;;5.17;;
17524;SDS011;40431;52.198;9.902;2023-02-28T02:14:09;6.77;;;6.10;;
17524;SDS011;40431;52.198;9.902;2023-02-28T02:16:57;5.77;;;5.37;;
17524;SDS011;40431;52.198;9.902;2023-02-28T02:19:39;5.90;;;5.50;;
17524;SDS011;40431;52.198;9.902;2023-02-28T02:22:43;6.67;;;5.93;;
17524;SDS011;40431;52.198;9.902;2023-02-28T02:25:34;6.50;;;5.90;;
17524;SDS011;40431;52.198;9.902;2023-02-28T02:28:11;5.57;;;5.27;;
17524;SDS011;40431;52.198;9.902;2023-02-28T02:31:06;5.80;;;5.33;;
17524;SDS011;40431;52.198;9.902;2023-02-28T02:36:59;6.00;;;5.30;;
17524;SDS011;40431;52.198;9.902;2023-02-28T02:39:34;5.83;;;5.33;;
17524;SDS011;40431;52.198;9.902;2023-02-28T02:42:09;6.53;;;6.07;;
17524;SDS011;40431;52.198;9.902;2023-02-28T02:44:40;6.37;;;5.97;;
17524;SDS011;40431;52.198;9.902;2023-02-28T02:47:11;6.37;;;5.83;;
17524;SDS011;40431;52.198;9.902;2023-02-28T02:49:43;6.20;;;5.70;;
17524;SDS011;40431;52.198;9.902;2023-02-28T02:52:14;6.80;;;6.30;;
17524;SDS011;40431;52.198;9.902;2023-02-28T02:54:46;6.90;;;6.40;;
17524;SDS011;40431;52.198;9.902;2023-02-28T02:57:19;7.00;;;6.30;;
17524;SDS011;40431;52.198;9.902;2023-02-28T02:59:49;6.87;;;6.20;;
17524;SDS011;40431;52.198;9.902;2023-02-28T03:02:19;6.70;;;6.10;;
17524;SDS011;40431;52.198;9.902;2023-02-28T03:04:50;7.17;;;6.47;;
17524;SDS011;40431;52.198;9.902;2023-02-28T03:07:18;6.87;;;6.27;;
17524;SDS011;40431;52.198;9.902;2023-02-28T03:09:50;6.07;;;5.63;;
17524;SDS011;40431;52.198;9.902;2023-02-28T03:12:17;6.43;;;5.90;;
17524;SDS011;40431;52.198;9.902;2023-02-28T03:14:48;6.37;;;5.97;;
17524;SDS011;40431;52.198;9.902;2023-02-28T03:20:17;6.73;;;6.23;;
17524;SDS011;40431;52.198;9.902;2023-02-28T03:22:56;6.30;;;5.83;;
17524;SDS011;40431;52.198;9.902;2023-02-28T03:25:32;6.30;;;5.73;;
17524;SDS011;40431;52.198;9.902;2023-02-28T03:28:05;6.23;;;5.77;;
17524;SDS011;40431;52.198;9.902;2023-02-28T03:30:40;6.53;;;5.93;;
17524;SDS011;40431;52.198;9.902;2023-02-28T03:33:11;6.13;;;5.63;;
17524;SDS011;40431;52.198;9.902;2023-02-28T03:35:43;6.20;;;5.60;;
17524;SDS011;40431;52.198;9.902;2023-02-28T03:38:15;6.07;;;5.50;;
17524;SDS011;40431;52.198;9.902;2023-02-28T03:40:46;6.37;;;5.87;;
17524;SDS011;40431;52.198;9.902;2023-02-28T03:43:18;5.87;;;5.47;;
17524;SDS011;40431;52.198;9.902;2023-02-28T03:45:48;6.67;;;6.17;;
17524;SDS011;40431;52.198;9.902;2023-02-28T03:48:19;6.83;;;6.23;;
17524;SDS011;40431;52.198;9.902;2023-02-28T03:50:53;8.10;;;5.30;;
17524;SDS011;40431;52.198;9.902;2023-02-28T03:53:25;5.87;;;5.37;;
17524;SDS011;40431;52.198;9.902;2023-02-28T03:55:57;5.60;;;5.13;;
17524;SDS011;40431;52.198;9.902;2023-02-28T03:58:28;5.90;;;5.40;;
17524;SDS011;40431;52.198;9.902;2023-02-28T04:01:03;6.43;;;5.83;;
17524;SDS011;40431;52.198;9.902;2023-02-28T04:03:33;5.50;;;5.10;;
17524;SDS011;40431;52.198;9.902;2023-02-28T04:06:03;5.17;;;4.70;;
17524;SDS011;40431;52.198;9.902;2023-02-28T04:08:30;4.67;;;4.37;;
17524;SDS011;40431;52.198;9.902;2023-02-28T04:10:58;4.93;;;4.57;;
17524;SDS011;40431;52.198;9.902;2023-02-28T04:13:29;5.17;;;4.77;;
17524;SDS011;40431;52.198;9.902;2023-02-28T04:15:56;5.00;;;4.60;;
17524;SDS011;40431;52.198;9.902;2023-02-28T04:18:22;5.23;;;4.90;;
17524;SDS011;40431;52.198;9.902;2023-02-28T04:20:48;5.27;;;4.70;;
17524;SDS011;40431;52.198;9.902;2023-02-28T04:23:16;5.63;;;5.23;;
17524;SDS011;40431;52.198;9.902;2023-02-28T04:25:42;5.13;;;4.83;;
17524;SDS011;40431;52.198;9.902;2023-02-28T04:28:09;5.50;;;5.10;;
17524;SDS011;40431;52.198;9.902;2023-02-28T04:30:37;4.80;;;4.50;;
17524;SDS011;40431;52.198;9.902;2023-02-28T04:33:04;5.47;;;5.07;;
17524;SDS011;40431;52.198;9.902;2023-02-28T04:35:30;6.27;;;5.87;;
17524;SDS011;40431;52.198;9.902;2023-02-28T04:37:56;5.80;;;5.30;;
17524;SDS011;40431;52.198;9.902;2023-02-28T04:40:24;5.47;;;5.13;;
17524;SDS011;40431;52.198;9.902;2023-02-28T04:42:50;4.83;;;4.43;;
17524;SDS011;40431;52.198;9.902;2023-02-28T04:45:17;6.13;;;5.73;;
17524;SDS011;40431;52.198;9.902;2023-02-28T04:47:43;6.17;;;5.73;;
17524;SDS011;40431;52.198;9.902;2023-02-28T04:50:10;7.90;;;5.97;;
17524;SDS011;40431;52.198;9.902;2023-02-28T04:52:36;7.47;;;6.83;;
17524;SDS011;40431;52.198;9.902;2023-02-28T04:55:03;6.90;;;6.30;;
17524;SDS011;40431;52.198;9.902;2023-02-28T04:57:31;7.90;;;7.30;;
17524;SDS011;40431;52.198;9.902;2023-02-28T04:59:58;8.10;;;7.40;;
17524;SDS011;40431;52.198;9.902;2023-02-28T05:02:24;8.00;;;7.30;;
17524;SDS011;40431;52.198;9.902;2023-02-28T05:04:50;7.87;;;7.00;;
17524;SDS011;40431;52.198;9.902;2023-02-28T05:07:17;7.07;;;6.57;;
17524;SDS011;40431;52.198;9.902;2023-02-28T05:09:43;7.13;;;6.53;;
17524;SDS011;40431;52.198;9.902;2023-02-28T05:12:09;5.77;;;5.37;;
17524;SDS011;40431;52.198;9.902;2023-02-28T05:14:37;7.60;;;7.10;;
17524;SDS011;40431;52.198;9.902;2023-02-28T05:17:03;10.13;;;9.23;;
17524;SDS011;40431;52.198;9.902;2023-02-28T05:19:30;7.70;;;7.00;;
17524;SDS011;40431;52.198;9.902;2023-02-28T05:21:56;7.07;;;6.50;;
17524;SDS011;40431;52.198;9.902;2023-02-28T05:24:23;6.50;;;6.00;;
17524;SDS011;40431;52.198;9.902;2023-02-28T05:26:49;7.73;;;7.13;;
17524;SDS011;40431;52.198;9.902;2023-02-28T05:29:17;7.00;;;6.40;;
17524;SDS011;40431;52.198;9.902;2023-02-28T05:31:45;7.27;;;6.67;;
17524;SDS011;40431;52.198;9.902;2023-02-28T05:34:12;8.67;;;7.87;;
17524;SDS011;40431;52.198;9.902;2023-02-28T05:36:40;6.43;;;6.00;;
17524;SDS011;40431;52.198;9.902;2023-02-28T05:39:07;8.07;;;7.37;;
17524;SDS011;40431;52.198;9.902;2023-02-28T05:41:37;8.10;;;7.47;;
17524;SDS011;40431;52.198;9.902;2023-02-28T05:44:04;7.60;;;7.00;;
17524;SDS011;40431;52.198;9.902;2023-02-28T05:46:31;7.37;;;6.77;;
17524;SDS011;40431;52.198;9.902;2023-02-28T05:48:58;7.50;;;6.90;;
17524;SDS011;40431;52.198;9.902;2023-02-28T05:51:25;6.73;;;6.23;;
17524;SDS011;40431;52.198;9.902;2023-02-28T05:53:52;7.03;;;6.53;;
17524;SDS011;40431;52.198;9.902;2023-02-28T05:56:18;6.93;;;6.43;;
17524;SDS011;40431;52.198;9.902;2023-02-28T05:58:45;6.60;;;6.10;;
17524;SDS011;40431;52.198;9.902;2023-02-28T06:01:26;7.57;;;6.87;;
17524;SDS011;40431;52.198;9.902;2023-02-28T06:03:59;7.10;;;6.50;;
17524;SDS011;40431;52.198;9.902;2023-02-28T06:06:26;8.53;;;7.93;;
17524;SDS011;40431;52.198;9.902;2023-02-28T06:08:53;7.37;;;6.77;;
17524;SDS011;40431;52.198;9.902;2023-02-28T06:11:19;7.07;;;6.57;;
17524;SDS011;40431;52.198;9.902;2023-02-28T06:13:45;7.40;;;6.90;;
17524;SDS011;40431;52.198;9.902;2023-02-28T06:16:12;7.63;;;7.13;;
17524;SDS011;40431;52.198;9.902;2023-02-28T06:18:38;6.83;;;6.43;;
17524;SDS011;40431;52.198;9.902;2023-02-28T06:21:06;14.43;;;12.97;;
17524;SDS011;40431;52.198;9.902;2023-02-28T06:23:33;11.90;;;10.80;;
17524;SDS011;40431;52.198;9.902;2023-02-28T06:26:00;11.17;;;10.17;;
17524;SDS011;40431;52.198;9.902;2023-02-28T06:28:26;9.73;;;8.93;;
17524;SDS011;40431;52.198;9.902;2023-02-28T06:30:53;10.20;;;9.20;;
17524;SDS011;40431;52.198;9.902;2023-02-28T06:33:19;10.37;;;9.47;;
17524;SDS011;40431;52.198;9.902;2023-02-28T06:35:46;9.90;;;9.13;;
17524;SDS011;40431;52.198;9.902;2023-02-28T06:38:14;11.57;;;10.50;;
17524;SDS011;40431;52.198;9.902;2023-02-28T06:40:41;12.30;;;11.23;;
17524;SDS011;40431;52.198;9.902;2023-02-28T06:43:08;12.37;;;11.40;;
17524;SDS011;40431;52.198;9.902;2023-02-28T06:45:40;11.83;;;10.77;;
17524;SDS011;40431;52.198;9.902;2023-02-28T06:48:07;11.27;;;10.37;;
17524;SDS011;40431;52.198;9.902;2023-02-28T06:50:35;11.80;;;10.10;;
17524;SDS011;40431;52.198;9.902;2023-02-28T06:53:01;12.80;;;11.80;;
17524;SDS011;40431;52.198;9.902;2023-02-28T06:55:29;14.30;;;12.90;;
17524;SDS011;40431;52.198;9.902;2023-02-28T06:57:55;13.07;;;11.87;;
17524;SDS011;40431;52.198;9.902;2023-02-28T07:00:23;13.87;;;12.53;;
17524;SDS011;40431;52.198;9.902;2023-02-28T07:02:50;14.07;;;10.67;;
17524;SDS011;40431;52.198;9.902;2023-02-28T07:05:16;12.30;;;11.00;;
17524;SDS011;40431;52.198;9.902;2023-02-28T07:07:43;13.33;;;11.90;;
17524;SDS011;40431;52.198;9.902;2023-02-28T07:10:11;11.93;;;10.83;;
17524;SDS011;40431;52.198;9.902;2023-02-28T07:12:43;13.20;;;12.00;;
17524;SDS011;40431;52.198;9.902;2023-02-28T07:15:09;13.63;;;12.43;;
17524;SDS011;40431;52.198;9.902;2023-02-28T07:17:36;16.13;;;14.73;;
17524;SDS011;40431;52.198;9.902;2023-02-28T07:20:03;16.00;;;14.70;;
17524;SDS011;40431;52.198;9.902;2023-02-28T07:22:30;14.90;;;13.37;;
17524;SDS011;40431;52.198;9.902;2023-02-28T07:24:56;15.40;;;14.00;;
17524;SDS011;40431;52.198;9.902;2023-02-28T07:27:22;13.63;;;12.57;;
17524;SDS011;40431;52.198;9.902;2023-02-28T07:29:51;12.90;;;11.90;;
17524;SDS011;40431;52.198;9.902;2023-02-28T07:32:19;9.77;;;8.87;;
17524;SDS011;40431;52.198;9.902;2023-02-28T07:34:46;10.40;;;9.60;;
17524;SDS011;40431;52.198;9.902;2023-02-28T07:37:13;10.77;;;9.77;;
17524;SDS011;40431;52.198;9.902;2023-02-28T07:39:40;11.57;;;10.57;;
17524;SDS011;40431;52.198;9.902;2023-02-28T07:42:07;10.73;;;10.00;;
17524;SDS011;40431;52.198;9.902;2023-02-28T07:44:35;10.53;;;9.80;;
17524;SDS011;40431;52.198;9.902;2023-02-28T07:47:06;10.53;;;9.63;;
17524;SDS011;40431;52.198;9.902;2023-02-28T07:49:33;11.47;;;10.47;;
17524;SDS011;40431;52.198;9.902;2023-02-28T07:52:00;10.73;;;9.83;;
17524;SDS011;40431;52.198;9.902;2023-02-28T07:54:26;11.07;;;10.13;;
17524;SDS011;40431;52.198;9.902;2023-02-28T07:56:53;12.03;;;9.53;;
17524;SDS011;40431;52.198;9.902;2023-02-28T07:59:19;10.43;;;9.40;;
17524;SDS011;40431;52.198;9.902;2023-02-28T08:01:45;9.37;;;8.50;;
17524;SDS011;40431;52.198;9.902;2023-02-28T08:04:15;9.87;;;8.87;;
17524;SDS011;40431;52.198;9.902;2023-02-28T08:06:42;9.03;;;8.20;;
17524;SDS011;40431;52.198;9.902;2023-02-28T08:09:08;9.57;;;8.67;;
17524;SDS011;40431;52.198;9.902;2023-02-28T08:11:34;9.87;;;9.13;;
17524;SDS011;40431;52.198;9.902;2023-02-28T08:14:01;8.93;;;8.13;;
17524;SDS011;40431;52.198;9.902;2023-02-28T08:16:27;9.27;;;8.33;;
17524;SDS011;40431;52.198;9.902;2023-02-28T08:18:54;9.20;;;8.40;;
17524;SDS011;40431;52.198;9.902;2023-02-28T08:21:21;9.23;;;8.33;;
17524;SDS011;40431;52.198;9.902;2023-02-28T08:23:48;11.20;;;7.77;;
17524;SDS011;40431;52.198;9.902;2023-02-28T08:26:15;8.53;;;7.83;;
17524;SDS011;40431;52.198;9.902;2023-02-28T08:28:42;8.77;;;8.17;;
17524;SDS011;40431;52.198;9.902;2023-02-28T08:31:09;8.67;;;7.97;;
17524;SDS011;40431;52.198;9.902;2023-02-28T08:33:36;8.43;;;7.83;;
17524;SDS011;40431;52.198;9.902;2023-02-28T08:36:04;9.17;;;8.37;;
17524;SDS011;40431;52.198;9.902;2023-02-28T08:38:32;8.90;;;8.20;;
17524;SDS011;40431;52.198;9.902;2023-02-28T08:40:59;8.33;;;7.63;;
17524;SDS011;40431;52.198;9.902;2023-02-28T08:43:27;8.80;;;7.93;;
17524;SDS011;40431;52.198;9.902;2023-02-28T08:45:54;7.10;;;6.60;;
17524;SDS011;40431;52.198;9.902;2023-02-28T08:48:21;7.87;;;7.20;;
17524;SDS011;40431;52.198;9.902;2023-02-28T08:50:54;6.67;;;6.17;;
17524;SDS011;40431;52.198;9.902;2023-02-28T08:53:21;6.67;;;6.17;;
17524;SDS011;40431;52.198;9.902;2023-02-28T08:55:54;6.53;;;6.00;;
17524;SDS011;40431;52.198;9.902;2023-02-28T08:58:21;6.53;;;6.03;;
17524;SDS011;40431;52.198;9.902;2023-02-28T09:00:48;7.97;;;5.60;;
17524;SDS011;40431;52.198;9.902;2023-02-28T09:03:15;6.97;;;6.50;;
17524;SDS011;40431;52.198;9.902;2023-02-28T09:05:42;8.23;;;7.50;;
17524;SDS011;40431;52.198;9.902;2023-02-28T09:08:18;8.13;;;7.33;;
17524;SDS011;40431;52.198;9.902;2023-02-28T09:10:44;6.47;;;5.97;;
17524;SDS011;40431;52.198;9.902;2023-02-28T09:13:12;7.33;;;5.50;;
17524;SDS011;40431;52.198;9.902;2023-02-28T09:15:38;6.93;;;6.43;;
17524;SDS011;40431;52.198;9.902;2023-02-28T09:18:04;11.27;;;7.20;;
17524;SDS011;40431;52.198;9.902;2023-02-28T09:20:31;5.47;;;4.57;;
17524;SDS011;40431;52.198;9.902;2023-02-28T09:22:57;6.07;;;5.43;;
17524;SDS011;40431;52.198;9.902;2023-02-28T09:25:23;5.63;;;5.13;;
17524;SDS011;40431;52.198;9.902;2023-02-28T09:27:50;5.40;;;4.90;;
17524;SDS011;40431;52.198;9.902;2023-02-28T09:30:18;5.40;;;5.00;;
17524;SDS011;40431;52.198;9.902;2023-02-28T09:32:44;7.00;;;6.50;;
17524;SDS011;40431;52.198;9.902;2023-02-28T09:35:16;5.73;;;5.27;;
17524;SDS011;40431;52.198;9.902;2023-02-28T09:37:43;6.13;;;5.73;;
17524;SDS011;40431;52.198;9.902;2023-02-28T09:40:10;12.10;;;5.10;;
17524;SDS011;40431;52.198;9.902;2023-02-28T09:42:38;4.57;;;4.17;;
17524;SDS011;40431;52.198;9.902;2023-02-28T09:45:06;10.17;;;5.43;;
17524;SDS011;40431;52.198;9.902;2023-02-28T09:47:46;4.60;;;4.03;;
17524;SDS011;40431;52.198;9.902;2023-02-28T09:50:16;4.17;;;3.87;;
17524;SDS011;40431;52.198;9.902;2023-02-28T09:52:48;4.20;;;3.90;;
17524;SDS011;40431;52.198;9.902;2023-02-28T09:55:19;4.07;;;3.83;;
17524;SDS011;40431;52.198;9.902;2023-02-28T09:57:48;4.33;;;3.97;;
17524;SDS011;40431;52.198;9.902;2023-02-28T10:00:17;9.20;;;4.80;;
17524;SDS011;40431;52.198;9.902;2023-02-28T10:02:58;4.20;;;3.90;;
17524;SDS011;40431;52.198;9.902;2023-02-28T10:05:33;3.67;;;3.47;;
17524;SDS011;40431;52.198;9.902;2023-02-28T10:08:06;6.03;;;4.13;;
17524;SDS011;40431;52.198;9.902;2023-02-28T10:10:39;3.30;;;3.00;;
17524;SDS011;40431;52.198;9.902;2023-02-28T10:13:12;3.97;;;3.67;;
17524;SDS011;40431;52.198;9.902;2023-02-28T10:15:42;4.83;;;4.53;;
17524;SDS011;40431;52.198;9.902;2023-02-28T10:18:14;4.67;;;4.27;;
17524;SDS011;40431;52.198;9.902;2023-02-28T10:20:46;4.73;;;4.33;;
17524;SDS011;40431;52.198;9.902;2023-02-28T10:23:17;5.93;;;4.33;;
17524;SDS011;40431;52.198;9.902;2023-02-28T10:25:47;4.03;;;3.73;;
17524;SDS011;40431;52.198;9.902;2023-02-28T10:28:19;4.30;;;3.93;;
17524;SDS011;40431;52.198;9.902;2023-02-28T10:30:46;8.07;;;4.80;;
17524;SDS011;40431;52.198;9.902;2023-02-28T10:33:17;4.33;;;4.07;;
17524;SDS011;40431;52.198;9.902;2023-02-28T10:35:47;3.67;;;3.37;;
17524;SDS011;40431;52.198;9.902;2023-02-28T10:38:15;4.50;;;4.20;;
17524;SDS011;40431;52.198;9.902;2023-02-28T10:40:43;5.60;;;4.43;;
17524;SDS011;40431;52.198;9.902;2023-02-28T10:43:17;4.57;;;4.17;;
17524;SDS011;40431;52.198;9.902;2023-02-28T10:45:52;4.50;;;4.13;;
17524;SDS011;40431;52.198;9.902;2023-02-28T10:48:37;4.67;;;4.37;;
17524;SDS011;40431;52.198;9.902;2023-02-28T10:51:05;4.57;;;4.17;;
17524;SDS011;40431;52.198;9.902;2023-02-28T10:53:35;4.50;;;4.10;;
17524;SDS011;40431;52.198;9.902;2023-02-28T10:56:14;4.50;;;4.20;;
17524;SDS011;40431;52.198;9.902;2023-02-28T10:58:46;5.30;;;4.80;;
17524;SDS011;40431;52.198;9.902;2023-02-28T11:01:15;4.80;;;3.97;;
17524;SDS011;40431;52.198;9.902;2023-02-28T11:03:44;4.67;;;4.20;;
17524;SDS011;40431;52.198;9.902;2023-02-28T11:06:18;8.83;;;4.83;;
17524;SDS011;40431;52.198;9.902;2023-02-28T11:08:47;7.77;;;4.47;;
17524;SDS011;40431;52.198;9.902;2023-02-28T11:11:16;4.60;;;4.20;;
17524;SDS011;40431;52.198;9.902;2023-02-28T11:13:45;4.27;;;3.90;;
17524;SDS011;40431;52.198;9.902;2023-02-28T11:16:16;4.67;;;4.27;;
17524;SDS011;40431;52.198;9.902;2023-02-28T11:18:46;4.90;;;4.47;;
17524;SDS011;40431;52.198;9.902;2023-02-28T11:21:16;8.00;;;4.10;;
17524;SDS011;40431;52.198;9.902;2023-02-28T11:23:45;3.97;;;3.67;;
17524;SDS011;40431;52.198;9.902;2023-02-28T11:26:15;6.90;;;3.57;;
17524;SDS011;40431;52.198;9.902;2023-02-28T11:29:03;3.70;;;3.40;;
17524;SDS011;40431;52.198;9.902;2023-02-28T11:31:34;3.93;;;3.63;;
17524;SDS011;40431;52.198;9.902;2023-02-28T11:34:07;5.00;;;4.53;;
17524;SDS011;40431;52.198;9.902;2023-02-28T11:36:49;4.33;;;4.03;;
17524;SDS011;40431;52.198;9.902;2023-02-28T11:39:16;4.53;;;4.10;;
17524;SDS011;40431;52.198;9.902;2023-02-28T11:41:48;4.93;;;4.00;;
17524;SDS011;40431;52.198;9.902;2023-02-28T11:44:27;4.13;;;3.83;;
17524;SDS011;40431;52.198;9.902;2023-02-28T11:47:06;4.30;;;3.90;;
17524;SDS011;40431;52.198;9.902;2023-02-28T11:49:42;4.20;;;3.80;;
17524;SDS011;40431;52.198;9.902;2023-02-28T11:52:19;4.30;;;4.00;;
17524;SDS011;40431;52.198;9.902;2023-02-28T11:54:55;5.10;;;3.73;;
17524;SDS011;40431;52.198;9.902;2023-02-28T11:57:35;3.30;;;3.07;;
17524;SDS011;40431;52.198;9.902;2023-02-28T12:00:15;3.53;;;3.23;;
17524;SDS011;40431;52.198;9.902;2023-02-28T12:02:58;5.33;;;3.20;;
17524;SDS011;40431;52.198;9.902;2023-02-28T12:05:33;4.47;;;4.13;;
17524;SDS011;40431;52.198;9.902;2023-02-28T12:08:07;3.93;;;3.33;;
17524;SDS011;40431;52.198;9.902;2023-02-28T12:10:52;3.03;;;2.83;;
17524;SDS011;40431;52.198;9.902;2023-02-28T12:13:29;3.33;;;2.97;;
17524;SDS011;40431;52.198;9.902;2023-02-28T12:16:18;4.30;;;3.90;;
17524;SDS011;40431;52.198;9.902;2023-02-28T12:19:00;3.23;;;3.03;;
17524;SDS011;40431;52.198;9.902;2023-02-28T12:21:45;2.83;;;2.63;;
17524;SDS011;40431;52.198;9.902;2023-02-28T12:24:27;3.33;;;2.47;;
17524;SDS011;40431;52.198;9.902;2023-02-28T12:27:05;2.90;;;2.70;;
17524;SDS011;40431;52.198;9.902;2023-02-28T12:29:38;3.53;;;3.33;;
17524;SDS011;40431;52.198;9.902;2023-02-28T12:32:09;6.20;;;4.13;;
17524;SDS011;40431;52.198;9.902;2023-02-28T12:34:42;2.80;;;2.63;;
17524;SDS011;40431;52.198;9.902;2023-02-28T12:37:15;3.93;;;3.30;;
17524;SDS011;40431;52.198;9.902;2023-02-28T12:39:48;3.60;;;3.30;;
17524;SDS011;40431;52.198;9.902;2023-02-28T12:42:19;3.73;;;3.43;;
17524;SDS011;40431;52.198;9.902;2023-02-28T12:44:54;3.00;;;2.80;;
17524;SDS011;40431;52.198;9.902;2023-02-28T12:47:24;3.87;;;3.30;;
17524;SDS011;40431;52.198;9.902;2023-02-28T12:49:52;3.23;;;3.03;;
17524;SDS011;40431;52.198;9.902;2023-02-28T12:52:25;3.53;;;2.93;;
17524;SDS011;40431;52.198;9.902;2023-02-28T12:55:00;3.33;;;3.03;;
17524;SDS011;40431;52.198;9.902;2023-02-28T12:57:32;3.07;;;2.80;;
17524;SDS011;40431;52.198;9.902;2023-02-28T13:00:08;3.63;;;3.07;;
17524;SDS011;40431;52.198;9.902;2023-02-28T13:02:43;2.97;;;2.77;;
17524;SDS011;40431;52.198;9.902;2023-02-28T13:05:24;3.00;;;2.73;;
17524;SDS011;40431;52.198;9.902;2023-02-28T13:08:12;3.17;;;2.87;;
17524;SDS011;40431;52.198;9.902;2023-02-28T13:10:52;4.70;;;2.97;;
17524;SDS011;40431;52.198;9.902;2023-02-28T13:13:20;5.20;;;3.00;;
17524;SDS011;40431;52.198;9.902;2023-02-28T13:15:59;3.23;;;3.00;;
17524;SDS011;40431;52.198;9.902;2023-02-28T13:18:29;3.83;;;3.37;;
17524;SDS011;40431;52.198;9.902;2023-02-28T13:20:57;3.50;;;3.30;;
17524;SDS011;40431;52.198;9.902;2023-02-28T13:29:43;7.37;;;3.57;;
17524;SDS011;40431;52.198;9.902;2023-02-28T13:32:29;3.50;;;3.20;;
17524;SDS011;40431;52.198;9.902;2023-02-28T13:38:23;2.90;;;2.70;;
17524;SDS011;40431;52.198;9.902;2023-02-28T13:43:58;3.20;;;3.00;;
17524;SDS011;40431;52.198;9.902;2023-02-28T13:46:28;5.33;;;3.93;;
17524;SDS011;40431;52.198;9.902;2023-02-28T13:48:55;6.17;;;3.20;;
17524;SDS011;40431;52.198;9.902;2023-02-28T13:51:35;3.40;;;3.10;;
17524;SDS011;40431;52.198;9.902;2023-02-28T13:54:11;3.80;;;3.50;;
17524;SDS011;40431;52.198;9.902;2023-02-28T13:56:52;3.67;;;3.37;;
17524;SDS011;40431;52.198;9.902;2023-02-28T13:59:32;3.87;;;3.57;;
17524;SDS011;40431;52.198;9.902;2023-02-28T14:02:26;4.70;;;3.20;;
17524;SDS011;40431;52.198;9.902;2023-02-28T14:05:11;3.10;;;2.90;;
17524;SDS011;40431;52.198;9.902;2023-02-28T14:07:41;3.33;;;3.13;;
17524;SDS011;40431;52.198;9.902;2023-02-28T14:10:18;4.30;;;3.20;;
17524;SDS011;40431;52.198;9.902;2023-02-28T14:12:51;3.57;;;3.20;;
17524;SDS011;40431;52.198;9.902;2023-02-28T14:18:16;3.10;;;2.90;;
17524;SDS011;40431;52.198;9.902;2023-02-28T14:20:47;3.53;;;3.27;;
17524;SDS011;40431;52.198;9.902;2023-02-28T14:23:16;3.40;;;3.10;;
17524;SDS011;40431;52.198;9.902;2023-02-28T14:25:54;3.37;;;3.17;;
17524;SDS011;40431;52.198;9.902;2023-02-28T14:28:31;3.87;;;3.50;;
17524;SDS011;40431;52.198;9.902;2023-02-28T14:31:13;3.37;;;3.17;;
17524;SDS011;40431;52.198;9.902;2023-02-28T14:33:48;3.50;;;3.30;;
17524;SDS011;40431;52.198;9.902;2023-02-28T14:36:31;3.70;;;3.40;;
17524;SDS011;40431;52.198;9.902;2023-02-28T14:38:59;3.93;;;3.33;;
17524;SDS011;40431;52.198;9.902;2023-02-28T14:41:31;3.63;;;3.33;;
17524;SDS011;40431;52.198;9.902;2023-02-28T14:44:02;3.50;;;3.20;;
17524;SDS011;40431;52.198;9.902;2023-02-28T14:46:39;3.77;;;3.10;;
17524;SDS011;40431;52.198;9.902;2023-02-28T14:49:11;3.47;;;3.23;;
17524;SDS011;40431;52.198;9.902;2023-02-28T14:51:41;6.23;;;3.60;;
17524;SDS011;40431;52.198;9.902;2023-02-28T14:54:12;3.70;;;3.37;;
17524;SDS011;40431;52.198;9.902;2023-02-28T14:56:40;3.87;;;3.57;;
17524;SDS011;40431;52.198;9.902;2023-02-28T14:59:21;3.37;;;3.07;;
17524;SDS011;40431;52.198;9.902;2023-02-28T15:01:50;3.70;;;3.37;;
17524;SDS011;40431;52.198;9.902;2023-02-28T15:04:21;4.63;;;4.23;;
17524;SDS011;40431;52.198;9.902;2023-02-28T15:07:06;5.40;;;4.60;;
17524;SDS011;40431;52.198;9.902;2023-02-28T15:09:33;5.30;;;4.97;;
17524;SDS011;40431;52.198;9.902;2023-02-28T15:12:00;4.37;;;4.07;;
17524;SDS011;40431;52.198;9.902;2023-02-28T15:14:26;4.93;;;4.50;;
17524;SDS011;40431;52.198;9.902;2023-02-28T15:16:55;4.30;;;4.00;;
17524;SDS011;40431;52.198;9.902;2023-02-28T15:19:27;4.20;;;3.90;;
17524;SDS011;40431;52.198;9.902;2023-02-28T15:21:57;3.97;;;3.60;;
17524;SDS011;40431;52.198;9.902;2023-02-28T15:24:30;4.27;;;3.87;;
17524;SDS011;40431;52.198;9.902;2023-02-28T15:27:04;4.37;;;3.23;;